createdAt,value
2022-11-24T00:01:23.875Z,96054.41
2022-11-24T00:03:59.563Z,96053.06
2022-11-24T00:06:28.459Z,96061.48
2022-11-24T00:08:56.703Z,96060.66
2022-11-24T00:11:27.656Z,96060.45
2022-11-24T00:13:57.060Z,96054.83
2022-11-24T00:16:27.922Z,96051.06
2022-11-24T00:18:57.402Z,96055.05
2022-11-24T00:21:27.479Z,96063.47
2022-11-24T00:23:55.810Z,96067.52
2022-11-24T00:26:28.960Z,96065.17
2022-11-24T00:28:59.454Z,96061.04
2022-11-24T00:31:31.620Z,96064.42
2022-11-24T00:34:01.834Z,96069.80
2022-11-24T00:36:32.306Z,96069.02
2022-11-24T00:39:03.215Z,96069.48
2022-11-24T00:41:32.056Z,96069.19
2022-11-24T00:44:00.482Z,96070.41
2022-11-24T00:46:28.632Z,96070.10
2022-11-24T00:48:57.507Z,96072.05
2022-11-24T00:51:28.072Z,96069.82
2022-11-24T00:53:57.441Z,96075.33
2022-11-24T00:56:27.204Z,96075.95
2022-11-24T00:58:55.438Z,96079.06
2022-11-24T01:01:26.175Z,96076.61
2022-11-24T01:03:55.349Z,96073.52
2022-11-24T01:06:26.084Z,96080.08
2022-11-24T01:08:54.693Z,96081.06
2022-11-24T01:11:28.988Z,96082.83
2022-11-24T01:13:59.156Z,96081.67
2022-11-24T01:16:32.760Z,96083.20
2022-11-24T01:19:01.572Z,96078.80
2022-11-24T01:21:29.575Z,96082.00
2022-11-24T01:23:57.789Z,96087.34
2022-11-24T01:26:25.631Z,96088.04
2022-11-24T01:28:55.529Z,96084.69
2022-11-24T01:31:25.058Z,96086.35
2022-11-24T01:33:54.089Z,96087.36
2022-11-24T01:36:22.527Z,96090.17
2022-11-24T01:38:51.631Z,96089.00
2022-11-24T01:41:22.723Z,96089.42
2022-11-24T01:43:52.524Z,96091.63
2022-11-24T01:46:27.143Z,96089.82
2022-11-24T01:49:20.996Z,96085.59
2022-11-24T01:51:55.577Z,96087.41
2022-11-24T01:54:36.430Z,96089.27
2022-11-24T01:57:15.592Z,96086.28
2022-11-24T01:59:46.830Z,96086.40
2022-11-24T02:02:15.506Z,96089.42
2022-11-24T02:04:44.305Z,96086.70
2022-11-24T02:07:13.671Z,96086.82
2022-11-24T02:09:51.839Z,96086.98
2022-11-24T02:12:20.162Z,96089.64
2022-11-24T02:14:48.286Z,96091.88
2022-11-24T02:17:16.173Z,96092.85
2022-11-24T02:19:57.633Z,96094.27
2022-11-24T02:22:50.121Z,96095.67
2022-11-24T02:25:35.317Z,96097.84
2022-11-24T02:28:08.708Z,96099.03
2022-11-24T02:30:36.704Z,96101.50
2022-11-24T02:33:04.498Z,96098.05
2022-11-24T02:35:33.401Z,96101.58
2022-11-24T02:38:01.233Z,96098.20
2022-11-24T02:40:31.071Z,96098.59
2022-11-24T02:43:08.028Z,96097.46
2022-11-24T02:45:35.985Z,96101.44
2022-11-24T02:48:04.079Z,96098.48
2022-11-24T02:50:32.094Z,96101.02
2022-11-24T02:53:00.004Z,96099.52
2022-11-24T02:55:27.982Z,96099.20
2022-11-24T02:57:56.163Z,96102.64
2022-11-24T03:00:24.053Z,96102.69
2022-11-24T03:02:52.458Z,96102.48
2022-11-24T03:05:20.869Z,96100.61
2022-11-24T03:07:48.742Z,96100.79
2022-11-24T03:10:16.896Z,96104.08
2022-11-24T03:12:44.835Z,96103.42
2022-11-24T03:15:12.689Z,96103.28
2022-11-24T03:17:40.591Z,96100.77
2022-11-24T03:20:09.350Z,96099.27
2022-11-24T03:22:37.592Z,96100.20
2022-11-24T03:25:05.796Z,96100.24
2022-11-24T03:27:33.792Z,96103.48
2022-11-24T03:30:01.678Z,96103.52
2022-11-24T03:32:29.614Z,96104.00
2022-11-24T03:34:57.513Z,96101.61
2022-11-24T03:37:25.370Z,96102.66
2022-11-24T03:39:53.206Z,96102.39
2022-11-24T03:42:21.052Z,96107.53
2022-11-24T03:44:48.890Z,96112.17
2022-11-24T03:47:16.864Z,96113.89
2022-11-24T03:49:44.831Z,96112.27
2022-11-24T03:52:12.728Z,96111.05
2022-11-24T03:54:40.545Z,96112.13
2022-11-24T03:57:08.603Z,96113.63
2022-11-24T03:59:36.515Z,96113.24
2022-11-24T04:02:04.456Z,96115.95
2022-11-24T04:04:32.743Z,96107.92
2022-11-24T04:07:00.858Z,96111.93
2022-11-24T04:09:28.776Z,96116.06
2022-11-24T04:12:15.394Z,96123.67
2022-11-24T04:14:43.268Z,96127.40
2022-11-24T04:17:11.169Z,96124.78
2022-11-24T04:19:39.150Z,96122.38
2022-11-24T04:22:06.989Z,96124.36
2022-11-24T04:24:35.135Z,96124.23
2022-11-24T04:27:03.388Z,96123.92
2022-11-24T04:29:31.462Z,96124.92
2022-11-24T04:31:59.282Z,96125.79
2022-11-24T04:34:27.080Z,96124.54
2022-11-24T04:36:54.869Z,96125.92
2022-11-24T04:39:26.448Z,96126.38
2022-11-24T04:41:56.995Z,96130.60
2022-11-24T04:44:24.996Z,96132.81
2022-11-24T04:46:52.982Z,96133.70
2022-11-24T04:49:20.954Z,96131.14
2022-11-24T04:51:48.810Z,96131.87
2022-11-24T04:54:16.743Z,96134.13
2022-11-24T04:56:44.608Z,96134.95
2022-11-24T04:59:15.006Z,96138.23
2022-11-24T05:01:44.272Z,96139.25
2022-11-24T05:04:14.581Z,96145.05
2022-11-24T05:06:42.540Z,96147.31
2022-11-24T05:09:17.743Z,96149.67
2022-11-24T05:11:45.722Z,96149.55
2022-11-24T05:14:13.606Z,96152.75
2022-11-24T05:16:41.695Z,96151.19
2022-11-24T05:19:09.671Z,96155.98
2022-11-24T05:21:37.746Z,96159.71
2022-11-24T05:24:06.065Z,96161.65
2022-11-24T05:26:35.580Z,96161.93
2022-11-24T05:29:03.581Z,96166.83
2022-11-24T05:31:31.596Z,96168.14
2022-11-24T05:33:59.613Z,96168.44
2022-11-24T05:36:45.997Z,96173.66
2022-11-24T05:39:13.817Z,96178.92
2022-11-24T05:41:42.205Z,96179.39
2022-11-24T05:44:10.203Z,96183.89
2022-11-24T05:46:38.448Z,96190.27
2022-11-24T05:49:06.317Z,96189.23
2022-11-24T05:51:34.553Z,96193.91
2022-11-24T05:54:02.564Z,96198.93
2022-11-24T05:56:30.551Z,96200.73
2022-11-24T05:58:58.544Z,96207.25
2022-11-24T06:01:26.402Z,96207.62
2022-11-24T06:03:54.372Z,96214.52
2022-11-24T06:06:22.314Z,96214.98
2022-11-24T06:08:50.324Z,96219.76
2022-11-24T06:11:18.228Z,96222.48
2022-11-24T06:13:48.679Z,96225.46
2022-11-24T06:16:17.162Z,96226.91
2022-11-24T06:18:45.137Z,96230.05
2022-11-24T06:21:13.048Z,96232.10
2022-11-24T06:23:41.193Z,96234.56
2022-11-24T06:26:09.371Z,96236.33
2022-11-24T06:28:37.485Z,96239.05
2022-11-24T06:31:05.956Z,96242.36
2022-11-24T06:33:37.081Z,96246.39
2022-11-24T06:36:07.894Z,96251.71
2022-11-24T06:38:36.824Z,96252.77
2022-11-24T06:41:07.364Z,96260.96
2022-11-24T06:43:35.978Z,96260.10
2022-11-24T06:46:04.071Z,96259.34
2022-11-24T06:48:32.903Z,96262.65
2022-11-24T06:51:03.025Z,96267.09
2022-11-24T06:53:32.309Z,96268.29
2022-11-24T06:56:01.049Z,96272.11
2022-11-24T06:58:29.082Z,96275.00
2022-11-24T07:00:57.211Z,96279.71
2022-11-24T07:03:25.236Z,96286.35
2022-11-24T07:05:57.993Z,96288.02
2022-11-24T07:08:26.343Z,96292.19
2022-11-24T07:10:54.377Z,96292.30
2022-11-24T07:13:22.362Z,96292.20
2022-11-24T07:15:50.681Z,96292.02
2022-11-24T07:18:18.625Z,96296.71
2022-11-24T07:20:46.419Z,96296.46
2022-11-24T07:23:14.309Z,96298.54
2022-11-24T07:25:42.274Z,96298.45
2022-11-24T07:28:10.186Z,96301.37
2022-11-24T07:30:38.103Z,96300.96
2022-11-24T07:33:06.004Z,96303.77
2022-11-24T07:35:33.897Z,96308.29
2022-11-24T07:38:01.843Z,96309.27
2022-11-24T07:40:29.781Z,96312.23
2022-11-24T07:43:01.124Z,96314.86
2022-11-24T07:45:28.985Z,96315.95
2022-11-24T07:47:56.939Z,96317.42
2022-11-24T07:50:24.833Z,96322.93
2022-11-24T07:52:52.854Z,96328.02
2022-11-24T07:55:20.700Z,96326.89
2022-11-24T07:57:48.505Z,96329.71
2022-11-24T08:00:17.153Z,96327.35
2022-11-24T08:02:44.948Z,96328.73
2022-11-24T08:05:13.008Z,96335.83
2022-11-24T08:07:40.895Z,96332.52
2022-11-24T08:10:09.072Z,96336.42
2022-11-24T08:12:37.068Z,96336.55
2022-11-24T08:15:10.924Z,96336.36
2022-11-24T08:17:39.305Z,96341.29
2022-11-24T08:20:08.762Z,96343.06
2022-11-24T08:22:36.599Z,96344.84
2022-11-24T08:25:04.721Z,96347.64
2022-11-24T08:27:32.753Z,96347.85
2022-11-24T08:30:00.695Z,96350.80
2022-11-24T08:32:28.558Z,96352.36
2022-11-24T08:35:03.282Z,96354.48
2022-11-24T08:37:41.351Z,96355.31
2022-11-24T08:40:09.933Z,96359.80
2022-11-24T08:42:37.824Z,96364.64
2022-11-24T08:45:19.857Z,96362.98
2022-11-24T08:47:52.932Z,96364.94
2022-11-24T08:50:22.633Z,96365.67
2022-11-24T08:52:52.592Z,96363.68
2022-11-24T08:55:20.880Z,96362.78
2022-11-24T08:57:48.722Z,96366.90
2022-11-24T09:00:22.538Z,96368.52
2022-11-24T09:02:57.583Z,96367.31
2022-11-24T09:05:50.776Z,96367.84
2022-11-24T09:08:13.866Z,96364.32
2022-11-24T09:10:41.906Z,96367.73
2022-11-24T09:13:09.766Z,96366.06
2022-11-24T09:15:37.648Z,96367.46
2022-11-24T09:18:08.567Z,96367.71
2022-11-24T09:20:36.522Z,96365.20
2022-11-24T09:23:04.611Z,96365.09
2022-11-24T09:25:42.303Z,96365.98
2022-11-24T09:28:10.188Z,96366.10
2022-11-24T09:30:38.150Z,96364.76
2022-11-24T09:33:06.084Z,96362.92
2022-11-24T09:35:37.257Z,96366.25
2022-11-24T09:38:05.829Z,96367.98
2022-11-24T09:40:33.819Z,96368.56
2022-11-24T09:43:20.660Z,96370.36
2022-11-24T09:46:06.519Z,96371.59
2022-11-24T09:48:41.447Z,96374.67
2022-11-24T09:51:14.838Z,96375.71
2022-11-24T09:53:53.814Z,96374.92
2022-11-24T09:56:27.851Z,96372.54
2022-11-24T09:59:15.315Z,96376.22
2022-11-24T10:01:45.712Z,96374.91
2022-11-24T10:04:21.669Z,96375.60
2022-11-24T10:07:11.541Z,96377.90
2022-11-24T10:10:22.833Z,96377.98
2022-11-24T10:13:07.529Z,96380.87
2022-11-24T10:16:09.029Z,96377.74
2022-11-24T10:19:13.058Z,96377.37
2022-11-24T10:22:07.635Z,96382.69
2022-11-24T10:25:15.156Z,96380.91
2022-11-24T10:28:02.237Z,96385.90
2022-11-24T10:30:31.177Z,96390.11
2022-11-24T10:33:08.209Z,96391.11
2022-11-24T10:35:48.629Z,96395.73
2022-11-24T10:38:37.430Z,96394.16
2022-11-24T10:41:14.588Z,96395.50
2022-11-24T10:43:44.009Z,96394.30
2022-11-24T10:46:19.823Z,96395.73
2022-11-24T10:48:59.202Z,96400.80
2022-11-24T10:51:49.771Z,96401.89
2022-11-24T10:54:19.267Z,96404.36
2022-11-24T10:56:50.683Z,96403.60
2022-11-24T10:59:39.600Z,96402.70
2022-11-24T11:02:37.688Z,96406.40
2022-11-24T11:05:25.512Z,96407.49
2022-11-24T11:08:21.539Z,96407.59
2022-11-24T11:11:09.770Z,96407.48
2022-11-24T11:13:37.590Z,96412.85
2022-11-24T11:16:24.246Z,96409.83
2022-11-24T11:18:53.193Z,96408.70
2022-11-24T11:21:36.699Z,96410.71
2022-11-24T11:24:16.494Z,96412.21
2022-11-24T11:26:44.734Z,96412.77
2022-11-24T11:35:12.766Z,96418.03
2022-11-24T11:37:45.364Z,96415.68
2022-11-24T11:40:21.895Z,96418.59
2022-11-24T11:43:04.093Z,96421.04
2022-11-24T11:45:36.906Z,96420.80
2022-11-24T11:48:23.823Z,96424.89
2022-11-24T11:51:25.882Z,96427.45
2022-11-24T11:54:02.995Z,96429.54
2022-11-24T11:56:37.585Z,96429.50
2022-11-24T11:59:30.932Z,96428.81
2022-11-24T12:02:33.632Z,96431.14
2022-11-24T12:05:20.159Z,96433.73
2022-11-24T12:08:14.674Z,96434.02
2022-11-24T12:11:13.932Z,96437.09
2022-11-24T12:13:45.064Z,96439.81
2022-11-24T12:16:22.079Z,96439.11
2022-11-24T12:18:58.315Z,96443.90
2022-11-24T12:21:52.886Z,96443.20
2022-11-24T12:24:52.151Z,96444.92
2022-11-24T12:27:55.647Z,96448.77
2022-11-24T12:30:24.210Z,96453.29
2022-11-24T12:33:26.459Z,96453.17
2022-11-24T12:36:17.171Z,96457.94
2022-11-24T12:38:52.167Z,96460.73
2022-11-24T12:41:43.116Z,96465.72
2022-11-24T12:44:30.823Z,96465.85
2022-11-24T12:47:31.230Z,96467.27
2022-11-24T12:50:18.942Z,96471.11
2022-11-24T12:52:52.899Z,96471.91
2022-11-24T12:55:25.621Z,96475.26
2022-11-24T12:58:12.280Z,96478.98
2022-11-24T13:00:46.985Z,96480.32
2022-11-24T13:03:27.085Z,96485.52
2022-11-24T13:06:23.982Z,96487.65
2022-11-24T13:08:51.995Z,96487.25
2022-11-24T13:11:22.861Z,96487.25
2022-11-24T13:14:15.308Z,96486.28
2022-11-24T13:19:46.150Z,96487.59
2022-11-24T13:22:28.197Z,96489.83
2022-11-24T13:25:33.431Z,96492.50
2022-11-24T13:28:03.528Z,96492.42
2022-11-24T13:30:34.631Z,96496.80
2022-11-24T13:33:16.011Z,96499.58
2022-11-24T13:36:04.299Z,96498.80
2022-11-24T13:38:59.360Z,96499.77
2022-11-24T13:41:33.498Z,96503.92
2022-11-24T13:44:13.826Z,96502.80
2022-11-24T13:47:06.945Z,96501.38
2022-11-24T13:49:38.891Z,96505.00
2022-11-24T13:52:37.967Z,96508.24
2022-11-24T13:55:12.053Z,96512.20
2022-11-24T13:57:42.980Z,96512.98
2022-11-24T14:00:27.272Z,96512.63
2022-11-24T14:03:01.693Z,96514.45
2022-11-24T14:05:51.991Z,96516.92
2022-11-24T14:08:27.181Z,96519.71
2022-11-24T14:10:57.481Z,96522.01
2022-11-24T14:13:27.477Z,96524.56
2022-11-24T14:16:21.731Z,96526.30
2022-11-24T14:18:51.690Z,96529.47
2022-11-24T14:21:26.123Z,96532.85
2022-11-24T14:24:08.844Z,96537.70
2022-11-24T14:26:39.485Z,96536.81
2022-11-24T14:29:14.797Z,96538.31
2022-11-24T14:31:51.878Z,96539.39
2022-11-24T14:34:21.309Z,96542.50
2022-11-24T14:36:50.300Z,96541.73
2022-11-24T14:39:22.920Z,96545.61
2022-11-24T14:42:27.550Z,96549.66
2022-11-24T14:45:04.022Z,96551.98
2022-11-24T14:47:36.337Z,96555.83
2022-11-24T14:50:15.585Z,96556.17
2022-11-24T14:53:02.224Z,96554.33
2022-11-24T14:55:32.140Z,96553.73
2022-11-24T14:58:00.240Z,96553.70
2022-11-24T15:00:32.890Z,96561.38
2022-11-24T15:03:00.706Z,96565.30
2022-11-24T15:05:52.491Z,96566.23
2022-11-24T15:08:20.619Z,96569.86
2022-11-24T15:10:49.011Z,96568.71
2022-11-24T15:13:21.489Z,96571.74
2022-11-24T15:15:57.563Z,96573.98
2022-11-24T15:18:34.574Z,96575.02
2022-11-24T15:21:03.434Z,96579.56
2022-11-24T15:23:33.041Z,96578.47
2022-11-24T15:26:00.900Z,96578.42
2022-11-24T15:28:30.634Z,96580.73
2022-11-24T15:31:09.580Z,96582.60
2022-11-24T15:33:38.288Z,96584.88
2022-11-24T15:36:06.489Z,96588.56
2022-11-24T15:38:34.369Z,96589.96
2022-11-24T15:41:02.624Z,96589.50
2022-11-24T15:43:42.617Z,96595.10
2022-11-24T15:46:11.021Z,96600.39
2022-11-24T15:48:39.623Z,96602.14
2022-11-24T15:51:15.022Z,96601.77
2022-11-24T15:53:46.745Z,96608.35
2022-11-24T15:56:25.482Z,96611.95
2022-11-24T15:58:54.286Z,96615.25
2022-11-24T16:01:24.475Z,96617.63
2022-11-24T16:03:52.345Z,96621.15
2022-11-24T16:06:25.234Z,96625.53
2022-11-24T16:08:54.621Z,96624.86
2022-11-24T16:11:22.997Z,96626.66
2022-11-24T16:13:53.970Z,96631.82
2022-11-24T16:16:24.853Z,96634.02
2022-11-24T16:18:53.327Z,96634.11
2022-11-24T16:21:21.292Z,96634.73
2022-11-24T16:23:49.099Z,96633.44
2022-11-24T16:26:17.112Z,96635.85
2022-11-24T16:28:45.922Z,96636.33
2022-11-24T16:31:16.348Z,96636.11
2022-11-24T16:33:47.896Z,96636.36
2022-11-24T16:36:15.748Z,96637.64
2022-11-24T16:38:43.823Z,96637.42
2022-11-24T16:41:11.803Z,96635.98
2022-11-24T16:43:39.929Z,96641.88
2022-11-24T16:46:14.332Z,96641.99
2022-11-24T16:48:42.327Z,96646.23
2022-11-24T16:51:11.286Z,96644.77
2022-11-24T16:53:39.908Z,96646.71
2022-11-24T16:56:08.414Z,96649.77
2022-11-24T16:58:41.204Z,96647.36
2022-11-24T17:01:12.335Z,96645.27
2022-11-24T17:03:40.946Z,96646.34
2022-11-24T17:06:11.564Z,96648.25
2022-11-24T17:08:40.936Z,96650.44
2022-11-24T17:11:14.784Z,96653.70
2022-11-24T17:13:43.157Z,96656.89
2022-11-24T17:16:14.048Z,96657.23
2022-11-24T17:18:42.914Z,96659.80
2022-11-24T17:21:14.804Z,96660.27
2022-11-24T17:23:43.464Z,96664.87
2022-11-24T17:26:16.095Z,96665.63
2022-11-24T17:28:44.215Z,96665.95
2022-11-24T17:31:17.924Z,96672.27
2022-11-24T17:33:45.893Z,96670.98
2022-11-24T17:36:13.952Z,96669.04
2022-11-24T17:38:41.983Z,96674.41
2022-11-24T17:41:09.803Z,96671.89
2022-11-24T17:43:38.211Z,96671.95
2022-11-24T17:46:06.219Z,96672.29
2022-11-24T17:48:35.418Z,96672.91
2022-11-24T17:51:10.162Z,96676.59
2022-11-24T17:53:39.279Z,96677.04
2022-11-24T17:56:11.439Z,96677.08
2022-11-24T17:58:42.860Z,96679.48
2022-11-24T18:01:12.909Z,96677.89
2022-11-24T18:03:41.615Z,96683.04
2022-11-24T18:06:12.995Z,96683.48
2022-11-24T18:08:46.725Z,96683.77
2022-11-24T18:11:24.652Z,96683.66
2022-11-24T18:14:00.652Z,96684.23
2022-11-24T18:16:33.551Z,96689.15
2022-11-24T18:19:11.558Z,96690.88
2022-11-24T18:21:41.422Z,96687.30
2022-11-24T18:24:12.001Z,96686.57
2022-11-24T18:26:41.890Z,96690.05
2022-11-24T18:29:11.516Z,96688.30
2022-11-24T18:31:39.716Z,96686.98
2022-11-24T18:34:08.184Z,96684.92
2022-11-24T18:36:36.322Z,96686.63
2022-11-24T18:39:06.673Z,96688.61
2022-11-24T18:41:35.196Z,96688.90
2022-11-24T18:44:07.886Z,96687.77
2022-11-24T18:46:37.078Z,96692.70
2022-11-24T18:49:07.440Z,96694.58
2022-11-24T18:51:35.878Z,96696.61
2022-11-24T18:54:05.611Z,96697.97
2022-11-24T18:56:33.828Z,96702.09
2022-11-24T18:59:01.923Z,96702.86
2022-11-24T19:01:30.111Z,96700.89
2022-11-24T19:04:00.717Z,96706.80
2022-11-24T19:06:32.649Z,96706.95
2022-11-24T19:09:07.103Z,96709.74
2022-11-24T19:11:38.765Z,96714.81
2022-11-24T19:14:08.906Z,96714.77
2022-11-24T19:16:37.229Z,96719.52
2022-11-24T19:19:05.342Z,96717.75
2022-11-24T19:21:37.619Z,96720.63
2022-11-24T19:24:10.414Z,96721.52
2022-11-24T19:26:39.529Z,96723.00
2022-11-24T19:29:08.436Z,96727.16
2022-11-24T19:31:40.598Z,96727.31
2022-11-24T19:34:08.661Z,96730.90
2022-11-24T19:36:36.759Z,96732.89
2022-11-24T19:39:05.361Z,96735.02
2022-11-24T19:41:34.577Z,96738.04
2022-11-24T19:44:02.680Z,96746.26
2022-11-24T19:46:31.535Z,96747.98
2022-11-24T19:49:01.141Z,96749.72
2022-11-24T19:51:31.841Z,96751.64
2022-11-24T19:54:00.560Z,96754.92
2022-11-24T19:56:30.964Z,96757.48
2022-11-24T19:58:59.127Z,96759.03
2022-11-24T20:01:29.930Z,96764.15
2022-11-24T20:04:00.708Z,96765.10
2022-11-24T20:06:33.757Z,96765.44
2022-11-24T20:09:01.877Z,96768.35
2022-11-24T20:11:30.591Z,96770.32
2022-11-24T20:13:59.565Z,96772.27
2022-11-24T20:16:30.576Z,96775.13
2022-11-24T20:19:01.744Z,96777.77
2022-11-24T20:21:32.715Z,96778.98
2022-11-24T20:24:03.898Z,96780.19
2022-11-24T20:26:35.935Z,96777.84
2022-11-24T20:29:04.910Z,96778.18
2022-11-24T20:31:38.743Z,96781.48
2022-11-24T20:34:07.183Z,96785.97
2022-11-24T20:36:36.715Z,96784.09
2022-11-24T20:39:08.538Z,96789.55
2022-11-24T20:41:37.749Z,96788.91
2022-11-24T20:44:08.670Z,96792.85
2022-11-24T20:46:38.769Z,96797.00
2022-11-24T20:49:09.135Z,96804.14
2022-11-24T20:51:47.061Z,96807.06
2022-11-24T20:54:17.964Z,96807.23
2022-11-24T20:56:46.813Z,96814.30
2022-11-24T20:59:18.112Z,96816.91
2022-11-24T21:01:46.621Z,96817.80
2022-11-24T21:04:21.505Z,96815.94
2022-11-24T21:06:49.716Z,96819.17
2022-11-24T21:09:18.777Z,96821.16
2022-11-24T21:11:47.540Z,96822.45
2022-11-24T21:14:15.645Z,96822.27
2022-11-24T21:16:44.136Z,96819.14
2022-11-24T21:19:14.621Z,96819.48
2022-11-24T21:21:43.099Z,96822.59
2022-11-24T21:24:16.913Z,96821.78
2022-11-24T21:26:50.483Z,96821.79
2022-11-24T21:29:22.036Z,96823.49
2022-11-24T21:31:50.050Z,96824.20
2022-11-24T21:34:19.189Z,96825.68
2022-11-24T21:36:47.764Z,96827.83
2022-11-24T21:39:16.365Z,96826.84
2022-11-24T21:41:44.906Z,96829.54
2022-11-24T21:44:13.881Z,96832.93
2022-11-24T21:46:51.044Z,96834.89
2022-11-24T21:49:23.623Z,96835.53
2022-11-24T21:51:55.566Z,96837.73
2022-11-24T21:54:23.917Z,96841.73
2022-11-24T21:56:53.705Z,96842.35
2022-11-24T21:59:22.315Z,96844.52
2022-11-24T22:01:50.239Z,96848.59
2022-11-24T22:04:18.183Z,96848.60
2022-11-24T22:06:46.263Z,96855.42
2022-11-24T22:09:17.934Z,96855.57
2022-11-24T22:11:49.522Z,96858.44
2022-11-24T22:14:18.053Z,96855.90
2022-11-24T22:16:46.382Z,96857.14
2022-11-24T22:19:14.326Z,96857.79
2022-11-24T22:21:42.457Z,96862.67
2022-11-24T22:24:10.609Z,96860.03
2022-11-24T22:26:41.072Z,96862.55
2022-11-24T22:29:09.460Z,96867.65
2022-11-24T22:31:38.023Z,96868.17
2022-11-24T22:34:06.032Z,96867.11
2022-11-24T22:36:33.997Z,96870.44
2022-11-24T22:39:03.900Z,96870.20
2022-11-24T22:41:34.294Z,96870.21
2022-11-24T22:44:02.506Z,96869.20
2022-11-24T22:46:32.056Z,96865.34
2022-11-24T22:49:01.416Z,96867.39
2022-11-24T22:51:33.043Z,96871.26
2022-11-24T22:54:03.215Z,96871.70
2022-11-24T22:56:36.469Z,96869.00
2022-11-24T22:59:04.785Z,96874.13
2022-11-24T23:01:36.550Z,96873.02
2022-11-24T23:04:04.804Z,96876.85
2022-11-24T23:06:33.815Z,96879.48
2022-11-24T23:09:04.064Z,96876.00
2022-11-24T23:11:38.659Z,96877.52
2022-11-24T23:14:12.056Z,96876.68
2022-11-24T23:16:40.439Z,96878.83
2022-11-24T23:19:08.955Z,96882.28
2022-11-24T23:21:40.946Z,96886.80
2022-11-24T23:24:10.652Z,96896.11
2022-11-24T23:26:40.961Z,96896.70
2022-11-24T23:29:10.787Z,96895.15
2022-11-24T23:31:42.118Z,96898.41
2022-11-24T23:34:10.146Z,96898.40
2022-11-24T23:36:38.473Z,96896.33
2022-11-24T23:39:10.893Z,96896.52
2022-11-24T23:41:38.858Z,96900.84
2022-11-24T23:44:07.270Z,96906.37
2022-11-24T23:46:35.144Z,96910.64
2022-11-24T23:49:03.342Z,96915.92
2022-11-24T23:51:33.166Z,96914.40
2022-11-24T23:54:01.552Z,96920.02
2022-11-24T23:56:32.764Z,96923.02
2022-11-24T23:59:02.930Z,96925.00
